sensor_id;sensor_type;location;lat;lon;timestamp;P1;durP1;ratioP1;P2;durP2;ratioP2
57832;SDS011;43667;53.036;6.740;2023-07-31T00:00:43;4.70;;;2.80;;
57832;SDS011;43667;53.036;6.740;2023-07-31T00:03:09;4.13;;;2.85;;
57832;SDS011;43667;53.036;6.740;2023-07-31T00:05:35;4.97;;;2.75;;
57832;SDS011;43667;53.036;6.740;2023-07-31T00:08:01;4.93;;;2.97;;
57832;SDS011;43667;53.036;6.740;2023-07-31T00:10:26;5.50;;;2.88;;
57832;SDS011;43667;53.036;6.740;2023-07-31T00:12:52;6.50;;;3.15;;
57832;SDS011;43667;53.036;6.740;2023-07-31T00:15:17;3.65;;;2.83;;
57832;SDS011;43667;53.036;6.740;2023-07-31T00:17:43;4.35;;;2.55;;
57832;SDS011;43667;53.036;6.740;2023-07-31T00:20:09;5.00;;;3.08;;
57832;SDS011;43667;53.036;6.740;2023-07-31T00:22:35;5.85;;;2.65;;
57832;SDS011;43667;53.036;6.740;2023-07-31T00:25:01;4.07;;;2.97;;
57832;SDS011;43667;53.036;6.740;2023-07-31T00:27:27;6.57;;;3.75;;
57832;SDS011;43667;53.036;6.740;2023-07-31T00:29:52;10.68;;;3.33;;
57832;SDS011;43667;53.036;6.740;2023-07-31T00:32:18;8.35;;;3.55;;
57832;SDS011;43667;53.036;6.740;2023-07-31T00:34:43;7.63;;;3.28;;
57832;SDS011;43667;53.036;6.740;2023-07-31T00:37:09;7.15;;;3.10;;
57832;SDS011;43667;53.036;6.740;2023-07-31T00:39:35;7.28;;;3.72;;
57832;SDS011;43667;53.036;6.740;2023-07-31T00:42:01;7.82;;;3.50;;
57832;SDS011;43667;53.036;6.740;2023-07-31T00:44:26;4.28;;;2.88;;
57832;SDS011;43667;53.036;6.740;2023-07-31T00:46:52;6.50;;;3.35;;
57832;SDS011;43667;53.036;6.740;2023-07-31T00:49:18;7.32;;;3.40;;
57832;SDS011;43667;53.036;6.740;2023-07-31T00:51:45;6.15;;;3.70;;
57832;SDS011;43667;53.036;6.740;2023-07-31T00:54:11;5.03;;;2.92;;
57832;SDS011;43667;53.036;6.740;2023-07-31T00:56:36;4.40;;;3.63;;
57832;SDS011;43667;53.036;6.740;2023-07-31T00:59:03;7.88;;;3.13;;
57832;SDS011;43667;53.036;6.740;2023-07-31T01:01:28;5.18;;;3.75;;
57832;SDS011;43667;53.036;6.740;2023-07-31T01:03:54;5.20;;;3.13;;
57832;SDS011;43667;53.036;6.740;2023-07-31T01:06:37;7.20;;;3.85;;
57832;SDS011;43667;53.036;6.740;2023-07-31T01:12:02;5.55;;;3.92;;
57832;SDS011;43667;53.036;6.740;2023-07-31T01:14:29;5.22;;;3.33;;
57832;SDS011;43667;53.036;6.740;2023-07-31T01:16:55;5.85;;;3.67;;
57832;SDS011;43667;53.036;6.740;2023-07-31T01:19:24;5.53;;;3.45;;
57832;SDS011;43667;53.036;6.740;2023-07-31T01:22:12;4.80;;;3.28;;
57832;SDS011;43667;53.036;6.740;2023-07-31T01:25:05;6.25;;;3.85;;
57832;SDS011;43667;53.036;6.740;2023-07-31T01:28:12;9.98;;;2.97;;
57832;SDS011;43667;53.036;6.740;2023-07-31T01:30:40;3.55;;;2.70;;
57832;SDS011;43667;53.036;6.740;2023-07-31T01:33:08;3.22;;;2.25;;
57832;SDS011;43667;53.036;6.740;2023-07-31T01:35:34;5.45;;;2.85;;
57832;SDS011;43667;53.036;6.740;2023-07-31T01:38:01;4.00;;;2.95;;
57832;SDS011;43667;53.036;6.740;2023-07-31T01:40:26;2.67;;;2.45;;
57832;SDS011;43667;53.036;6.740;2023-07-31T01:42:52;6.32;;;2.92;;
57832;SDS011;43667;53.036;6.740;2023-07-31T01:45:18;6.07;;;2.35;;
57832;SDS011;43667;53.036;6.740;2023-07-31T01:47:43;3.20;;;2.30;;
57832;SDS011;43667;53.036;6.740;2023-07-31T01:50:09;4.47;;;2.10;;
57832;SDS011;43667;53.036;6.740;2023-07-31T01:52:34;2.47;;;2.28;;
57832;SDS011;43667;53.036;6.740;2023-07-31T01:55:00;2.47;;;1.95;;
57832;SDS011;43667;53.036;6.740;2023-07-31T01:57:26;2.72;;;1.42;;
57832;SDS011;43667;53.036;6.740;2023-07-31T01:59:51;4.45;;;1.33;;
57832;SDS011;43667;53.036;6.740;2023-07-31T02:02:18;2.00;;;1.42;;
57832;SDS011;43667;53.036;6.740;2023-07-31T02:04:44;1.42;;;1.10;;
57832;SDS011;43667;53.036;6.740;2023-07-31T02:07:10;2.63;;;1.25;;
57832;SDS011;43667;53.036;6.740;2023-07-31T02:09:36;1.63;;;1.13;;
57832;SDS011;43667;53.036;6.740;2023-07-31T02:12:01;3.63;;;1.50;;
57832;SDS011;43667;53.036;6.740;2023-07-31T02:14:27;7.07;;;1.60;;
57832;SDS011;43667;53.036;6.740;2023-07-31T02:16:53;3.72;;;0.98;;
57832;SDS011;43667;53.036;6.740;2023-07-31T02:19:18;2.95;;;1.05;;
57832;SDS011;43667;53.036;6.740;2023-07-31T02:21:44;1.15;;;0.82;;
57832;SDS011;43667;53.036;6.740;2023-07-31T02:24:09;1.42;;;1.00;;
57832;SDS011;43667;53.036;6.740;2023-07-31T02:26:35;0.77;;;0.60;;
57832;SDS011;43667;53.036;6.740;2023-07-31T02:29:01;5.43;;;1.20;;
57832;SDS011;43667;53.036;6.740;2023-07-31T02:31:26;1.20;;;0.70;;
57832;SDS011;43667;53.036;6.740;2023-07-31T02:33:52;1.10;;;0.68;;
57832;SDS011;43667;53.036;6.740;2023-07-31T02:36:17;1.27;;;0.80;;
57832;SDS011;43667;53.036;6.740;2023-07-31T02:38:44;1.70;;;0.70;;
57832;SDS011;43667;53.036;6.740;2023-07-31T02:41:09;1.75;;;0.70;;
57832;SDS011;43667;53.036;6.740;2023-07-31T02:43:35;1.30;;;0.50;;
57832;SDS011;43667;53.036;6.740;2023-07-31T02:46:00;2.13;;;1.00;;
57832;SDS011;43667;53.036;6.740;2023-07-31T02:48:26;2.85;;;0.88;;
57832;SDS011;43667;53.036;6.740;2023-07-31T02:50:51;1.27;;;0.80;;
57832;SDS011;43667;53.036;6.740;2023-07-31T02:53:18;0.95;;;0.60;;
57832;SDS011;43667;53.036;6.740;2023-07-31T02:55:43;1.02;;;0.60;;
57832;SDS011;43667;53.036;6.740;2023-07-31T02:58:09;1.13;;;0.60;;
57832;SDS011;43667;53.036;6.740;2023-07-31T03:00:34;0.98;;;0.43;;
57832;SDS011;43667;53.036;6.740;2023-07-31T03:03:00;1.83;;;0.85;;
57832;SDS011;43667;53.036;6.740;2023-07-31T03:05:26;1.55;;;0.80;;
57832;SDS011;43667;53.036;6.740;2023-07-31T03:07:51;1.75;;;0.80;;
57832;SDS011;43667;53.036;6.740;2023-07-31T03:10:17;1.45;;;0.70;;
57832;SDS011;43667;53.036;6.740;2023-07-31T03:12:43;3.22;;;0.90;;
57832;SDS011;43667;53.036;6.740;2023-07-31T03:15:11;1.80;;;0.80;;
57832;SDS011;43667;53.036;6.740;2023-07-31T03:17:37;0.80;;;0.50;;
57832;SDS011;43667;53.036;6.740;2023-07-31T03:20:03;1.90;;;0.70;;
57832;SDS011;43667;53.036;6.740;2023-07-31T03:22:29;2.13;;;1.00;;
57832;SDS011;43667;53.036;6.740;2023-07-31T03:24:54;2.63;;;0.45;;
57832;SDS011;43667;53.036;6.740;2023-07-31T03:27:20;1.23;;;0.70;;
57832;SDS011;43667;53.036;6.740;2023-07-31T03:29:45;0.65;;;0.50;;
57832;SDS011;43667;53.036;6.740;2023-07-31T03:32:11;0.63;;;0.50;;
57832;SDS011;43667;53.036;6.740;2023-07-31T03:34:36;1.80;;;0.75;;
57832;SDS011;43667;53.036;6.740;2023-07-31T03:37:02;1.52;;;0.60;;
57832;SDS011;43667;53.036;6.740;2023-07-31T03:39:30;3.25;;;0.70;;
57832;SDS011;43667;53.036;6.740;2023-07-31T03:41:55;1.73;;;0.80;;
57832;SDS011;43667;53.036;6.740;2023-07-31T03:44:21;2.35;;;0.98;;
57832;SDS011;43667;53.036;6.740;2023-07-31T03:46:46;1.25;;;0.65;;
57832;SDS011;43667;53.036;6.740;2023-07-31T03:49:12;1.10;;;0.60;;
57832;SDS011;43667;53.036;6.740;2023-07-31T03:51:38;0.73;;;0.60;;
57832;SDS011;43667;53.036;6.740;2023-07-31T03:54:03;2.13;;;0.75;;
57832;SDS011;43667;53.036;6.740;2023-07-31T03:56:29;0.80;;;0.63;;
57832;SDS011;43667;53.036;6.740;2023-07-31T03:58:54;1.23;;;0.60;;
57832;SDS011;43667;53.036;6.740;2023-07-31T04:01:20;4.57;;;0.50;;
57832;SDS011;43667;53.036;6.740;2023-07-31T04:03:45;1.00;;;0.60;;
57832;SDS011;43667;53.036;6.740;2023-07-31T04:06:11;1.52;;;0.50;;
57832;SDS011;43667;53.036;6.740;2023-07-31T04:08:36;0.93;;;0.45;;
57832;SDS011;43667;53.036;6.740;2023-07-31T04:11:02;0.85;;;0.50;;
57832;SDS011;43667;53.036;6.740;2023-07-31T04:13:29;0.95;;;0.50;;
57832;SDS011;43667;53.036;6.740;2023-07-31T04:15:55;1.85;;;0.85;;
57832;SDS011;43667;53.036;6.740;2023-07-31T04:18:20;2.53;;;0.40;;
57832;SDS011;43667;53.036;6.740;2023-07-31T04:20:46;1.13;;;0.40;;
57832;SDS011;43667;53.036;6.740;2023-07-31T04:23:12;0.20;;;0.15;;
57832;SDS011;43667;53.036;6.740;2023-07-31T04:25:37;1.05;;;0.30;;
57832;SDS011;43667;53.036;6.740;2023-07-31T04:28:03;0.55;;;0.30;;
57832;SDS011;43667;53.036;6.740;2023-07-31T04:30:29;0.88;;;0.50;;
57832;SDS011;43667;53.036;6.740;2023-07-31T04:32:54;1.35;;;0.55;;
57832;SDS011;43667;53.036;6.740;2023-07-31T04:35:20;1.15;;;0.40;;
57832;SDS011;43667;53.036;6.740;2023-07-31T04:37:46;1.23;;;0.40;;
57832;SDS011;43667;53.036;6.740;2023-07-31T04:40:13;0.98;;;0.50;;
57832;SDS011;43667;53.036;6.740;2023-07-31T04:42:41;2.90;;;0.40;;
57832;SDS011;43667;53.036;6.740;2023-07-31T04:45:08;0.70;;;0.50;;
57832;SDS011;43667;53.036;6.740;2023-07-31T04:47:34;1.45;;;0.45;;
57832;SDS011;43667;53.036;6.740;2023-07-31T04:50:00;1.27;;;0.47;;
57832;SDS011;43667;53.036;6.740;2023-07-31T04:52:25;1.00;;;0.63;;
57832;SDS011;43667;53.036;6.740;2023-07-31T04:54:51;5.30;;;0.88;;
57832;SDS011;43667;53.036;6.740;2023-07-31T04:57:16;3.42;;;0.70;;
57832;SDS011;43667;53.036;6.740;2023-07-31T04:59:42;0.98;;;0.38;;
57832;SDS011;43667;53.036;6.740;2023-07-31T05:02:08;2.95;;;0.43;;
57832;SDS011;43667;53.036;6.740;2023-07-31T05:04:33;0.60;;;0.40;;
57832;SDS011;43667;53.036;6.740;2023-07-31T05:06:59;0.95;;;0.30;;
57832;SDS011;43667;53.036;6.740;2023-07-31T05:09:24;1.48;;;0.50;;
57832;SDS011;43667;53.036;6.740;2023-07-31T05:11:50;1.83;;;0.60;;
57832;SDS011;43667;53.036;6.740;2023-07-31T05:14:15;7.35;;;0.50;;
57832;SDS011;43667;53.036;6.740;2023-07-31T05:16:41;0.60;;;0.40;;
57832;SDS011;43667;53.036;6.740;2023-07-31T05:19:07;2.63;;;0.82;;
57832;SDS011;43667;53.036;6.740;2023-07-31T05:21:32;1.45;;;0.70;;
57832;SDS011;43667;53.036;6.740;2023-07-31T05:23:58;1.98;;;0.90;;
57832;SDS011;43667;53.036;6.740;2023-07-31T05:26:24;2.08;;;0.80;;
57832;SDS011;43667;53.036;6.740;2023-07-31T05:28:49;4.90;;;0.90;;
57832;SDS011;43667;53.036;6.740;2023-07-31T05:31:15;4.20;;;1.17;;
57832;SDS011;43667;53.036;6.740;2023-07-31T05:33:41;3.17;;;1.10;;
57832;SDS011;43667;53.036;6.740;2023-07-31T05:36:06;5.82;;;1.42;;
57832;SDS011;43667;53.036;6.740;2023-07-31T05:38:32;3.03;;;1.23;;
57832;SDS011;43667;53.036;6.740;2023-07-31T05:40:57;4.03;;;1.38;;
57832;SDS011;43667;53.036;6.740;2023-07-31T05:43:23;3.75;;;1.58;;
57832;SDS011;43667;53.036;6.740;2023-07-31T05:45:48;5.45;;;1.70;;
57832;SDS011;43667;53.036;6.740;2023-07-31T05:48:14;5.03;;;1.63;;
57832;SDS011;43667;53.036;6.740;2023-07-31T05:50:40;5.65;;;2.03;;
57832;SDS011;43667;53.036;6.740;2023-07-31T05:53:05;7.70;;;2.90;;
57832;SDS011;43667;53.036;6.740;2023-07-31T05:55:32;9.07;;;3.47;;
57832;SDS011;43667;53.036;6.740;2023-07-31T05:57:58;9.60;;;4.53;;
57832;SDS011;43667;53.036;6.740;2023-07-31T06:00:24;12.85;;;4.75;;
57832;SDS011;43667;53.036;6.740;2023-07-31T06:02:50;15.13;;;5.63;;
57832;SDS011;43667;53.036;6.740;2023-07-31T06:05:16;16.60;;;6.57;;
57832;SDS011;43667;53.036;6.740;2023-07-31T06:07:42;25.42;;;7.72;;
57832;SDS011;43667;53.036;6.740;2023-07-31T06:10:08;14.45;;;5.90;;
57832;SDS011;43667;53.036;6.740;2023-07-31T06:12:34;19.30;;;7.72;;
57832;SDS011;43667;53.036;6.740;2023-07-31T06:15:01;22.70;;;7.85;;
57832;SDS011;43667;53.036;6.740;2023-07-31T06:17:28;29.77;;;9.68;;
57832;SDS011;43667;53.036;6.740;2023-07-31T06:19:54;24.25;;;7.80;;
57832;SDS011;43667;53.036;6.740;2023-07-31T06:22:19;22.70;;;8.63;;
57832;SDS011;43667;53.036;6.740;2023-07-31T06:24:46;23.02;;;7.53;;
57832;SDS011;43667;53.036;6.740;2023-07-31T06:27:11;29.88;;;8.73;;
57832;SDS011;43667;53.036;6.740;2023-07-31T06:29:37;29.70;;;8.57;;
57832;SDS011;43667;53.036;6.740;2023-07-31T06:32:02;28.38;;;9.75;;
57832;SDS011;43667;53.036;6.740;2023-07-31T06:34:28;28.80;;;8.73;;
57832;SDS011;43667;53.036;6.740;2023-07-31T06:36:55;28.30;;;10.43;;
57832;SDS011;43667;53.036;6.740;2023-07-31T06:39:21;27.90;;;9.15;;
57832;SDS011;43667;53.036;6.740;2023-07-31T06:41:47;23.85;;;8.70;;
57832;SDS011;43667;53.036;6.740;2023-07-31T06:44:12;20.13;;;8.15;;
57832;SDS011;43667;53.036;6.740;2023-07-31T06:46:38;30.20;;;9.70;;
57832;SDS011;43667;53.036;6.740;2023-07-31T06:49:05;26.95;;;8.45;;
57832;SDS011;43667;53.036;6.740;2023-07-31T06:51:31;20.50;;;7.38;;
57832;SDS011;43667;53.036;6.740;2023-07-31T06:53:57;23.48;;;7.95;;
57832;SDS011;43667;53.036;6.740;2023-07-31T06:56:23;20.67;;;7.63;;
57832;SDS011;43667;53.036;6.740;2023-07-31T06:58:48;20.30;;;7.15;;
57832;SDS011;43667;53.036;6.740;2023-07-31T07:01:14;22.67;;;7.28;;
57832;SDS011;43667;53.036;6.740;2023-07-31T07:03:40;19.88;;;7.50;;
57832;SDS011;43667;53.036;6.740;2023-07-31T07:06:06;21.75;;;6.57;;
57832;SDS011;43667;53.036;6.740;2023-07-31T07:08:32;17.58;;;7.10;;
57832;SDS011;43667;53.036;6.740;2023-07-31T07:10:57;18.50;;;6.78;;
57832;SDS011;43667;53.036;6.740;2023-07-31T07:13:23;21.38;;;6.82;;
57832;SDS011;43667;53.036;6.740;2023-07-31T07:15:49;18.73;;;7.63;;
57832;SDS011;43667;53.036;6.740;2023-07-31T07:18:15;22.85;;;8.25;;
57832;SDS011;43667;53.036;6.740;2023-07-31T07:20:50;17.27;;;7.68;;
57832;SDS011;43667;53.036;6.740;2023-07-31T07:23:18;22.48;;;8.15;;
57832;SDS011;43667;53.036;6.740;2023-07-31T07:25:44;22.42;;;8.23;;
57832;SDS011;43667;53.036;6.740;2023-07-31T07:28:11;18.80;;;7.82;;
57832;SDS011;43667;53.036;6.740;2023-07-31T07:30:36;21.13;;;7.15;;
57832;SDS011;43667;53.036;6.740;2023-07-31T07:33:02;16.60;;;8.13;;
57832;SDS011;43667;53.036;6.740;2023-07-31T07:35:28;16.58;;;6.07;;
57832;SDS011;43667;53.036;6.740;2023-07-31T07:37:54;16.98;;;6.03;;
57832;SDS011;43667;53.036;6.740;2023-07-31T07:40:21;13.40;;;6.03;;
57832;SDS011;43667;53.036;6.740;2023-07-31T07:42:47;14.48;;;5.30;;
57832;SDS011;43667;53.036;6.740;2023-07-31T07:45:13;10.73;;;4.50;;
57832;SDS011;43667;53.036;6.740;2023-07-31T07:47:40;9.13;;;4.57;;
57832;SDS011;43667;53.036;6.740;2023-07-31T07:50:06;10.20;;;4.65;;
57832;SDS011;43667;53.036;6.740;2023-07-31T07:52:32;6.47;;;3.65;;
57832;SDS011;43667;53.036;6.740;2023-07-31T07:54:58;7.50;;;3.50;;
57832;SDS011;43667;53.036;6.740;2023-07-31T07:57:23;8.43;;;3.55;;
57832;SDS011;43667;53.036;6.740;2023-07-31T07:59:49;8.90;;;3.70;;
57832;SDS011;43667;53.036;6.740;2023-07-31T08:02:14;7.25;;;4.22;;
57832;SDS011;43667;53.036;6.740;2023-07-31T08:04:40;8.57;;;3.40;;
57832;SDS011;43667;53.036;6.740;2023-07-31T08:07:05;8.60;;;3.88;;
57832;SDS011;43667;53.036;6.740;2023-07-31T08:09:31;6.95;;;3.70;;
57832;SDS011;43667;53.036;6.740;2023-07-31T08:11:57;7.03;;;3.60;;
57832;SDS011;43667;53.036;6.740;2023-07-31T08:14:27;9.23;;;4.00;;
57832;SDS011;43667;53.036;6.740;2023-07-31T08:16:52;7.00;;;3.03;;
57832;SDS011;43667;53.036;6.740;2023-07-31T08:19:18;8.43;;;2.88;;
57832;SDS011;43667;53.036;6.740;2023-07-31T08:21:44;5.07;;;2.50;;
57832;SDS011;43667;53.036;6.740;2023-07-31T08:24:09;5.07;;;2.42;;
57832;SDS011;43667;53.036;6.740;2023-07-31T08:26:35;5.20;;;2.25;;
57832;SDS011;43667;53.036;6.740;2023-07-31T08:29:00;5.85;;;2.78;;
57832;SDS011;43667;53.036;6.740;2023-07-31T08:31:26;4.93;;;2.17;;
57832;SDS011;43667;53.036;6.740;2023-07-31T08:33:52;5.70;;;2.58;;
57832;SDS011;43667;53.036;6.740;2023-07-31T08:36:17;4.90;;;2.42;;
57832;SDS011;43667;53.036;6.740;2023-07-31T08:38:44;4.40;;;2.30;;
57832;SDS011;43667;53.036;6.740;2023-07-31T08:41:10;4.60;;;1.90;;
57832;SDS011;43667;53.036;6.740;2023-07-31T08:43:36;2.90;;;1.60;;
57832;SDS011;43667;53.036;6.740;2023-07-31T08:46:03;2.60;;;1.60;;
57832;SDS011;43667;53.036;6.740;2023-07-31T08:48:29;4.85;;;1.33;;
57832;SDS011;43667;53.036;6.740;2023-07-31T08:50:56;2.97;;;1.45;;
57832;SDS011;43667;53.036;6.740;2023-07-31T08:53:22;1.73;;;1.00;;
57832;SDS011;43667;53.036;6.740;2023-07-31T08:55:49;2.70;;;1.15;;
57832;SDS011;43667;53.036;6.740;2023-07-31T08:58:17;2.65;;;1.25;;
57832;SDS011;43667;53.036;6.740;2023-07-31T09:00:44;2.90;;;1.08;;
57832;SDS011;43667;53.036;6.740;2023-07-31T09:03:15;2.70;;;1.42;;
57832;SDS011;43667;53.036;6.740;2023-07-31T09:05:43;3.05;;;1.20;;
57832;SDS011;43667;53.036;6.740;2023-07-31T09:08:11;2.08;;;1.10;;
57832;SDS011;43667;53.036;6.740;2023-07-31T09:10:42;1.60;;;1.00;;
57832;SDS011;43667;53.036;6.740;2023-07-31T09:13:10;4.20;;;1.20;;
57832;SDS011;43667;53.036;6.740;2023-07-31T09:15:36;2.65;;;1.00;;
57832;SDS011;43667;53.036;6.740;2023-07-31T09:18:03;4.88;;;1.05;;
57832;SDS011;43667;53.036;6.740;2023-07-31T09:20:30;2.10;;;0.70;;
57832;SDS011;43667;53.036;6.740;2023-07-31T09:22:57;2.38;;;0.95;;
57832;SDS011;43667;53.036;6.740;2023-07-31T09:25:33;1.17;;;0.95;;
57832;SDS011;43667;53.036;6.740;2023-07-31T09:28:00;0.80;;;0.60;;
57832;SDS011;43667;53.036;6.740;2023-07-31T09:30:26;0.77;;;0.40;;
57832;SDS011;43667;53.036;6.740;2023-07-31T09:32:59;1.50;;;0.57;;
57832;SDS011;43667;53.036;6.740;2023-07-31T09:35:30;1.85;;;0.73;;
57832;SDS011;43667;53.036;6.740;2023-07-31T09:37:58;0.85;;;0.50;;
57832;SDS011;43667;53.036;6.740;2023-07-31T09:40:34;2.05;;;0.65;;
57832;SDS011;43667;53.036;6.740;2023-07-31T09:43:04;0.65;;;0.50;;
57832;SDS011;43667;53.036;6.740;2023-07-31T09:45:33;1.23;;;0.50;;
57832;SDS011;43667;53.036;6.740;2023-07-31T09:48:03;1.27;;;0.57;;
57832;SDS011;43667;53.036;6.740;2023-07-31T09:50:31;0.75;;;0.50;;
57832;SDS011;43667;53.036;6.740;2023-07-31T09:52:57;0.70;;;0.47;;
57832;SDS011;43667;53.036;6.740;2023-07-31T09:55:23;1.08;;;0.38;;
57832;SDS011;43667;53.036;6.740;2023-07-31T09:57:49;0.45;;;0.30;;
57832;SDS011;43667;53.036;6.740;2023-07-31T10:00:16;1.40;;;0.30;;
57832;SDS011;43667;53.036;6.740;2023-07-31T10:02:44;0.68;;;0.30;;
57832;SDS011;43667;53.036;6.740;2023-07-31T10:05:12;0.57;;;0.30;;
57832;SDS011;43667;53.036;6.740;2023-07-31T10:07:41;1.02;;;0.30;;
57832;SDS011;43667;53.036;6.740;2023-07-31T10:10:08;0.95;;;0.43;;
57832;SDS011;43667;53.036;6.740;2023-07-31T10:12:34;0.40;;;0.20;;
57832;SDS011;43667;53.036;6.740;2023-07-31T10:15:01;3.40;;;0.40;;
57832;SDS011;43667;53.036;6.740;2023-07-31T10:17:27;0.40;;;0.30;;
57832;SDS011;43667;53.036;6.740;2023-07-31T10:19:56;0.70;;;0.35;;
57832;SDS011;43667;53.036;6.740;2023-07-31T10:22:24;2.15;;;0.30;;
57832;SDS011;43667;53.036;6.740;2023-07-31T10:24:50;0.70;;;0.40;;
57832;SDS011;43667;53.036;6.740;2023-07-31T10:27:19;0.85;;;0.40;;
57832;SDS011;43667;53.036;6.740;2023-07-31T10:29:45;0.68;;;0.32;;
57832;SDS011;43667;53.036;6.740;2023-07-31T10:32:13;1.05;;;0.30;;
57832;SDS011;43667;53.036;6.740;2023-07-31T10:34:40;1.35;;;0.25;;
57832;SDS011;43667;53.036;6.740;2023-07-31T10:37:28;1.17;;;0.30;;
57832;SDS011;43667;53.036;6.740;2023-07-31T10:39:55;0.95;;;0.30;;
57832;SDS011;43667;53.036;6.740;2023-07-31T10:42:27;1.70;;;0.50;;
57832;SDS011;43667;53.036;6.740;2023-07-31T10:44:58;0.85;;;0.32;;
57832;SDS011;43667;53.036;6.740;2023-07-31T10:47:25;0.10;;;0.10;;
57832;SDS011;43667;53.036;6.740;2023-07-31T10:49:51;0.65;;;0.17;;
57832;SDS011;43667;53.036;6.740;2023-07-31T10:52:20;0.22;;;0.10;;
57832;SDS011;43667;53.036;6.740;2023-07-31T10:55:11;0.80;;;0.15;;
57832;SDS011;43667;53.036;6.740;2023-07-31T10:57:44;0.73;;;0.40;;
57832;SDS011;43667;53.036;6.740;2023-07-31T11:00:25;0.50;;;0.10;;
57832;SDS011;43667;53.036;6.740;2023-07-31T11:02:59;0.90;;;0.10;;
57832;SDS011;43667;53.036;6.740;2023-07-31T11:05:41;0.20;;;0.10;;
57832;SDS011;43667;53.036;6.740;2023-07-31T11:08:14;0.20;;;0.10;;
57832;SDS011;43667;53.036;6.740;2023-07-31T11:13:27;0.65;;;0.20;;
57832;SDS011;43667;53.036;6.740;2023-07-31T11:15:58;0.55;;;0.20;;
57832;SDS011;43667;53.036;6.740;2023-07-31T11:18:25;1.75;;;0.20;;
57832;SDS011;43667;53.036;6.740;2023-07-31T11:20:52;1.10;;;0.20;;
57832;SDS011;43667;53.036;6.740;2023-07-31T11:23:19;1.08;;;0.20;;
57832;SDS011;43667;53.036;6.740;2023-07-31T11:25:44;1.25;;;0.22;;
57832;SDS011;43667;53.036;6.740;2023-07-31T11:28:11;0.40;;;0.17;;
57832;SDS011;43667;53.036;6.740;2023-07-31T11:30:39;1.58;;;0.30;;
57832;SDS011;43667;53.036;6.740;2023-07-31T11:33:06;1.13;;;0.10;;
57832;SDS011;43667;53.036;6.740;2023-07-31T11:35:34;0.75;;;0.10;;
57832;SDS011;43667;53.036;6.740;2023-07-31T11:38:01;0.20;;;0.03;;
57832;SDS011;43667;53.036;6.740;2023-07-31T11:40:27;0.32;;;0.10;;
57832;SDS011;43667;53.036;6.740;2023-07-31T11:42:57;1.08;;;0.10;;
57832;SDS011;43667;53.036;6.740;2023-07-31T11:45:27;0.77;;;0.10;;
57832;SDS011;43667;53.036;6.740;2023-07-31T11:47:56;4.22;;;0.50;;
57832;SDS011;43667;53.036;6.740;2023-07-31T11:50:22;1.23;;;0.30;;
57832;SDS011;43667;53.036;6.740;2023-07-31T11:52:51;1.23;;;0.13;;
57832;SDS011;43667;53.036;6.740;2023-07-31T11:55:21;1.38;;;0.17;;
57832;SDS011;43667;53.036;6.740;2023-07-31T11:57:47;0.68;;;0.15;;
57832;SDS011;43667;53.036;6.740;2023-07-31T12:00:14;2.85;;;0.35;;
57832;SDS011;43667;53.036;6.740;2023-07-31T12:02:40;1.35;;;0.40;;
57832;SDS011;43667;53.036;6.740;2023-07-31T12:05:11;0.40;;;0.20;;
57832;SDS011;43667;53.036;6.740;2023-07-31T12:07:47;0.93;;;0.32;;
57832;SDS011;43667;53.036;6.740;2023-07-31T12:12:59;0.93;;;0.30;;
57832;SDS011;43667;53.036;6.740;2023-07-31T12:15:38;1.77;;;0.75;;
57832;SDS011;43667;53.036;6.740;2023-07-31T12:18:18;0.73;;;0.50;;
57832;SDS011;43667;53.036;6.740;2023-07-31T12:20:46;1.55;;;0.20;;
57832;SDS011;43667;53.036;6.740;2023-07-31T12:23:14;1.52;;;0.30;;
57832;SDS011;43667;53.036;6.740;2023-07-31T12:25:41;1.70;;;0.68;;
57832;SDS011;43667;53.036;6.740;2023-07-31T12:28:07;1.30;;;0.40;;
57832;SDS011;43667;53.036;6.740;2023-07-31T12:30:42;0.77;;;0.32;;
57832;SDS011;43667;53.036;6.740;2023-07-31T12:33:14;0.77;;;0.52;;
57832;SDS011;43667;53.036;6.740;2023-07-31T12:35:41;2.65;;;0.90;;
57832;SDS011;43667;53.036;6.740;2023-07-31T12:38:08;2.33;;;1.00;;
57832;SDS011;43667;53.036;6.740;2023-07-31T12:40:36;1.20;;;0.60;;
57832;SDS011;43667;53.036;6.740;2023-07-31T12:43:06;1.58;;;0.57;;
57832;SDS011;43667;53.036;6.740;2023-07-31T12:45:32;2.08;;;0.40;;
57832;SDS011;43667;53.036;6.740;2023-07-31T12:47:58;2.10;;;0.52;;
57832;SDS011;43667;53.036;6.740;2023-07-31T12:50:24;1.77;;;0.43;;
57832;SDS011;43667;53.036;6.740;2023-07-31T12:52:53;1.70;;;0.30;;
57832;SDS011;43667;53.036;6.740;2023-07-31T12:55:19;0.68;;;0.32;;
57832;SDS011;43667;53.036;6.740;2023-07-31T12:57:44;0.95;;;0.30;;
57832;SDS011;43667;53.036;6.740;2023-07-31T13:00:10;0.95;;;0.40;;
57832;SDS011;43667;53.036;6.740;2023-07-31T13:02:37;2.58;;;0.57;;
57832;SDS011;43667;53.036;6.740;2023-07-31T13:05:03;2.33;;;0.73;;
57832;SDS011;43667;53.036;6.740;2023-07-31T13:07:29;1.38;;;0.40;;
57832;SDS011;43667;53.036;6.740;2023-07-31T13:09:55;1.45;;;0.52;;
57832;SDS011;43667;53.036;6.740;2023-07-31T13:12:20;2.70;;;0.55;;
57832;SDS011;43667;53.036;6.740;2023-07-31T13:14:46;2.70;;;0.80;;
57832;SDS011;43667;53.036;6.740;2023-07-31T13:17:11;2.53;;;0.77;;
57832;SDS011;43667;53.036;6.740;2023-07-31T13:19:37;1.77;;;0.70;;
57832;SDS011;43667;53.036;6.740;2023-07-31T13:22:02;2.38;;;0.93;;
57832;SDS011;43667;53.036;6.740;2023-07-31T13:24:29;2.38;;;0.82;;
57832;SDS011;43667;53.036;6.740;2023-07-31T13:26:55;2.25;;;0.93;;
57832;SDS011;43667;53.036;6.740;2023-07-31T13:29:21;2.95;;;0.93;;
57832;SDS011;43667;53.036;6.740;2023-07-31T13:31:47;3.63;;;1.30;;
57832;SDS011;43667;53.036;6.740;2023-07-31T13:34:12;4.10;;;1.17;;
57832;SDS011;43667;53.036;6.740;2023-07-31T13:36:38;2.97;;;1.20;;
57832;SDS011;43667;53.036;6.740;2023-07-31T13:39:04;2.17;;;1.00;;
57832;SDS011;43667;53.036;6.740;2023-07-31T13:41:29;2.75;;;1.35;;
57832;SDS011;43667;53.036;6.740;2023-07-31T13:43:55;3.13;;;1.70;;
57832;SDS011;43667;53.036;6.740;2023-07-31T13:46:20;3.80;;;1.67;;
57832;SDS011;43667;53.036;6.740;2023-07-31T13:48:46;3.92;;;1.77;;
57832;SDS011;43667;53.036;6.740;2023-07-31T13:51:11;3.40;;;1.25;;
57832;SDS011;43667;53.036;6.740;2023-07-31T13:53:37;6.05;;;1.67;;
57832;SDS011;43667;53.036;6.740;2023-07-31T13:56:02;4.97;;;1.70;;
57832;SDS011;43667;53.036;6.740;2023-07-31T13:58:28;6.38;;;1.70;;
57832;SDS011;43667;53.036;6.740;2023-07-31T14:00:54;6.13;;;1.65;;
57832;SDS011;43667;53.036;6.740;2023-07-31T14:03:19;5.45;;;1.75;;
57832;SDS011;43667;53.036;6.740;2023-07-31T14:05:45;5.47;;;1.80;;
57832;SDS011;43667;53.036;6.740;2023-07-31T14:08:10;10.50;;;2.13;;
57832;SDS011;43667;53.036;6.740;2023-07-31T14:10:36;5.18;;;1.92;;
57832;SDS011;43667;53.036;6.740;2023-07-31T14:13:02;5.20;;;1.98;;
57832;SDS011;43667;53.036;6.740;2023-07-31T14:15:27;7.90;;;2.05;;
57832;SDS011;43667;53.036;6.740;2023-07-31T14:17:53;6.15;;;1.95;;
57832;SDS011;43667;53.036;6.740;2023-07-31T14:20:19;6.32;;;2.17;;
57832;SDS011;43667;53.036;6.740;2023-07-31T14:22:44;8.98;;;2.08;;
57832;SDS011;43667;53.036;6.740;2023-07-31T14:25:10;8.43;;;2.20;;
57832;SDS011;43667;53.036;6.740;2023-07-31T14:27:36;6.40;;;2.10;;
57832;SDS011;43667;53.036;6.740;2023-07-31T14:30:02;7.03;;;2.40;;
57832;SDS011;43667;53.036;6.740;2023-07-31T14:32:28;8.15;;;2.30;;
57832;SDS011;43667;53.036;6.740;2023-07-31T14:34:54;8.57;;;2.90;;
57832;SDS011;43667;53.036;6.740;2023-07-31T14:37:20;7.40;;;2.15;;
57832;SDS011;43667;53.036;6.740;2023-07-31T14:39:45;6.03;;;2.30;;
57832;SDS011;43667;53.036;6.740;2023-07-31T14:42:11;6.53;;;2.65;;
57832;SDS011;43667;53.036;6.740;2023-07-31T14:44:36;7.18;;;2.33;;
57832;SDS011;43667;53.036;6.740;2023-07-31T14:47:02;7.47;;;2.40;;
57832;SDS011;43667;53.036;6.740;2023-07-31T14:49:28;6.43;;;2.25;;
57832;SDS011;43667;53.036;6.740;2023-07-31T14:51:54;5.63;;;2.30;;